createdAt,value
2019-04-07T00:01:19.401Z,60.30
2019-04-07T00:03:51.665Z,60.60
2019-04-07T00:06:22.442Z,60.90
2019-04-07T00:08:54.518Z,61.20
2019-04-07T00:11:29.269Z,61.40
2019-04-07T00:14:00.258Z,61.50
2019-04-07T00:16:31.119Z,62.40
2019-04-07T00:19:07.076Z,61.80
2019-04-07T00:21:40.853Z,62.00
2019-04-07T00:24:13.703Z,62.00
2019-04-07T00:26:47.492Z,62.10
2019-04-07T00:29:18.172Z,62.00
2019-04-07T00:31:48.575Z,62.10
2019-04-07T00:34:19.210Z,62.30
2019-04-07T00:36:49.660Z,62.50
2019-04-07T00:39:20.708Z,62.50
2019-04-07T00:41:58.327Z,62.70
2019-04-07T00:44:29.174Z,62.80
2019-04-07T00:47:00.984Z,62.90
2019-04-07T00:49:32.910Z,62.90
2019-04-07T00:52:08.319Z,63.00
2019-04-07T00:54:40.245Z,63.10
2019-04-07T00:57:14.212Z,63.10
2019-04-07T00:59:48.939Z,63.10
2019-04-07T01:02:19.615Z,63.00
2019-04-07T01:04:55.035Z,63.00
2019-04-07T01:07:25.768Z,63.10
2019-04-07T01:09:56.114Z,63.10
2019-04-07T01:12:26.559Z,63.20
2019-04-07T01:14:57.314Z,63.30
2019-04-07T01:17:29.085Z,63.40
2019-04-07T01:19:59.795Z,63.50
2019-04-07T01:22:30.877Z,63.70
2019-04-07T01:25:01.589Z,63.80
2019-04-07T01:27:32.012Z,63.70
2019-04-07T01:30:02.941Z,63.80
2019-04-07T01:32:33.319Z,63.80
2019-04-07T01:35:04.718Z,63.90
2019-04-07T01:37:35.318Z,64.00
2019-04-07T01:40:16.847Z,64.10
2019-04-07T01:43:21.709Z,64.30
2019-04-07T01:46:11.215Z,64.30
2019-04-07T01:48:57.452Z,64.30
2019-04-07T01:51:43.805Z,64.40
2019-04-07T01:54:36.224Z,64.50
2019-04-07T01:57:23.551Z,64.50
2019-04-07T02:00:12.611Z,64.60
2019-04-07T02:03:01.020Z,64.80
2019-04-07T02:05:58.620Z,64.90
2019-04-07T02:08:46.364Z,64.80
2019-04-07T02:11:27.554Z,64.90
2019-04-07T02:14:23.281Z,65.00
2019-04-07T02:17:05.399Z,65.30
2019-04-07T02:19:49.984Z,65.40
2019-04-07T02:22:42.392Z,65.50
2019-04-07T02:25:19.938Z,65.40
2019-04-07T02:28:08.299Z,65.60
2019-04-07T02:30:56.274Z,65.80
2019-04-07T02:33:37.199Z,66.00
2019-04-07T02:36:23.952Z,66.00
2019-04-07T02:39:11.959Z,66.10
2019-04-07T02:42:15.112Z,66.20
2019-04-07T02:45:07.676Z,66.20
2019-04-07T02:47:51.343Z,66.30
2019-04-07T02:50:43.800Z,66.50
2019-04-07T02:53:31.001Z,67.00
2019-04-07T02:56:27.987Z,66.90
2019-04-07T02:59:21.513Z,66.90
2019-04-07T03:02:00.221Z,66.60
2019-04-07T03:04:50.155Z,66.40
2019-04-07T03:07:39.979Z,66.60
2019-04-07T03:10:25.068Z,66.70
2019-04-07T03:13:07.565Z,66.70
2019-04-07T03:15:49.586Z,66.70
2019-04-07T03:18:35.889Z,67.00
2019-04-07T03:21:28.426Z,67.00
2019-04-07T03:24:21.085Z,66.90
2019-04-07T03:27:13.777Z,66.50
2019-04-07T03:30:03.973Z,66.40
2019-04-07T03:32:54.383Z,66.70
2019-04-07T03:35:40.453Z,67.00
2019-04-07T03:38:39.343Z,67.10
2019-04-07T03:41:35.168Z,67.30
2019-04-07T03:44:14.630Z,67.40
2019-04-07T03:46:59.650Z,67.60
2019-04-07T03:49:43.967Z,67.70
2019-04-07T03:52:34.017Z,67.80
2019-04-07T03:55:28.263Z,67.90
2019-04-07T03:58:12.297Z,68.00
2019-04-07T04:01:39.225Z,68.20
2019-04-07T04:04:37.483Z,68.60
2019-04-07T04:07:39.798Z,68.60
2019-04-07T04:10:19.202Z,68.40
2019-04-07T04:13:15.099Z,68.30
2019-04-07T04:15:50.120Z,68.40
2019-04-07T04:18:20.707Z,68.50
2019-04-07T04:20:51.162Z,68.50
2019-04-07T04:23:22.008Z,68.60
2019-04-07T04:25:52.495Z,68.60
2019-04-07T04:28:23.682Z,68.90
2019-04-07T04:30:56.485Z,68.90
2019-04-07T04:33:27.598Z,68.90
2019-04-07T04:35:59.072Z,68.90
2019-04-07T04:38:30.582Z,69.00
2019-04-07T04:41:01.379Z,68.90
2019-04-07T04:43:32.236Z,68.90
2019-04-07T04:46:09.333Z,68.90
2019-04-07T04:48:37.420Z,68.90
2019-04-07T04:51:08.514Z,68.90
2019-04-07T04:53:40.282Z,68.80
2019-04-07T04:56:12.918Z,68.80
2019-04-07T04:58:44.345Z,68.90
2019-04-07T05:01:16.241Z,69.00
2019-04-07T05:03:47.486Z,69.50
2019-04-07T05:06:18.146Z,69.70
2019-04-07T05:08:48.631Z,69.60
2019-04-07T05:11:19.094Z,69.50
2019-04-07T05:13:53.042Z,69.50
2019-04-07T05:16:23.989Z,69.50
2019-04-07T05:18:54.711Z,69.80
2019-04-07T05:21:26.164Z,69.70
2019-04-07T05:23:56.799Z,69.40
2019-04-07T05:26:28.030Z,69.30
2019-04-07T05:28:59.355Z,69.30
2019-04-07T05:31:30.463Z,69.40
2019-04-07T05:34:00.917Z,69.30
2019-04-07T05:36:32.456Z,69.10
2019-04-07T05:39:07.486Z,69.10
2019-04-07T05:41:40.026Z,68.90
2019-04-07T05:44:10.442Z,68.90
2019-04-07T05:46:42.555Z,69.00
2019-04-07T05:49:15.936Z,69.10
2019-04-07T05:51:45.880Z,69.20
2019-04-07T05:54:17.365Z,69.20
2019-04-07T05:56:49.193Z,69.30
2019-04-07T05:59:19.900Z,69.40
2019-04-07T06:01:52.506Z,69.30
2019-04-07T06:04:22.431Z,69.30
2019-04-07T06:06:55.335Z,69.30
2019-04-07T06:09:25.400Z,69.10
2019-04-07T06:11:56.041Z,69.00
2019-04-07T06:14:26.813Z,69.00
2019-04-07T06:16:57.342Z,69.10
2019-04-07T06:19:27.689Z,69.20
2019-04-07T06:21:58.131Z,69.20
2019-04-07T06:24:31.498Z,69.10
2019-04-07T06:27:03.394Z,69.20
2019-04-07T06:29:33.492Z,69.10
2019-04-07T06:32:05.587Z,69.00
2019-04-07T06:34:41.091Z,68.80
2019-04-07T06:37:13.248Z,68.90
2019-04-07T06:39:44.295Z,68.70
2019-04-07T06:42:14.749Z,68.30
2019-04-07T06:44:45.788Z,68.20
2019-04-07T06:47:23.785Z,68.30
2019-04-07T06:50:17.033Z,68.50
2019-04-07T06:53:10.721Z,68.20
2019-04-07T06:56:00.059Z,67.90
2019-04-07T06:58:47.347Z,67.70
2019-04-07T07:01:45.888Z,67.40
2019-04-07T07:04:33.791Z,67.20
2019-04-07T07:07:35.741Z,67.00
2019-04-07T07:10:30.419Z,66.90
2019-04-07T07:13:28.335Z,66.50
2019-04-07T07:15:58.557Z,66.40
2019-04-07T07:18:48.775Z,66.20
2019-04-07T07:21:27.404Z,66.00
2019-04-07T07:23:59.164Z,65.50
2019-04-07T07:26:34.572Z,65.40
2019-04-07T07:29:06.718Z,64.90
2019-04-07T07:31:37.944Z,64.30
2019-04-07T07:34:11.070Z,64.20
2019-04-07T07:36:41.789Z,63.80
2019-04-07T07:39:14.566Z,63.00
2019-04-07T07:41:50.346Z,62.60
2019-04-07T07:44:20.565Z,62.70
2019-04-07T07:46:52.925Z,62.50
2019-04-07T07:49:32.473Z,62.50
2019-04-07T07:51:59.267Z,62.40
2019-04-07T07:54:30.609Z,62.40
2019-04-07T07:57:01.386Z,62.20
2019-04-07T07:59:37.634Z,61.70
2019-04-07T08:02:08.684Z,61.40
2019-04-07T08:04:44.305Z,60.70
2019-04-07T08:07:16.361Z,60.30
2019-04-07T08:09:48.255Z,59.90
2019-04-07T08:12:25.416Z,59.70
2019-04-07T08:15:03.803Z,59.70
2019-04-07T08:17:43.323Z,59.60
2019-04-07T08:20:32.598Z,59.20
2019-04-07T08:23:13.212Z,58.70
2019-04-07T08:25:44.033Z,58.10
2019-04-07T08:28:26.480Z,57.80
2019-04-07T08:30:58.685Z,57.40
2019-04-07T08:33:29.813Z,56.90
2019-04-07T08:36:00.888Z,56.50
2019-04-07T08:38:31.249Z,56.60
2019-04-07T08:41:04.185Z,56.30
2019-04-07T08:43:37.735Z,56.40
2019-04-07T08:46:08.816Z,56.10
2019-04-07T08:48:40.129Z,55.70
2019-04-07T08:51:11.306Z,55.70
2019-04-07T08:53:45.118Z,55.40
2019-04-07T08:56:15.589Z,54.80
2019-04-07T08:58:47.823Z,55.20
2019-04-07T09:01:34.921Z,55.20
2019-04-07T09:04:09.830Z,55.40
2019-04-07T09:07:15.377Z,55.40
2019-04-07T09:13:14.932Z,54.90
2019-04-07T09:20:41.893Z,54.50
2019-04-07T09:24:11.457Z,54.20
2019-04-07T09:35:11.254Z,53.40
2019-04-07T09:38:35.454Z,53.50
2019-04-07T09:42:04.200Z,53.40
2019-04-07T09:45:29.994Z,53.00
2019-04-07T09:48:50.969Z,52.40
2019-04-07T09:52:16.115Z,52.00
2019-04-07T09:55:25.771Z,52.00
2019-04-07T09:58:35.831Z,52.30
2019-04-07T10:01:23.330Z,52.10
2019-04-07T10:04:02.700Z,51.80
2019-04-07T10:07:11.097Z,52.20
2019-04-07T10:09:50.298Z,51.70
2019-04-07T10:12:58.686Z,51.00
2019-04-07T10:15:47.485Z,50.70
2019-04-07T10:18:38.278Z,50.50
2019-04-07T10:21:36.865Z,50.10
2019-04-07T10:24:30.241Z,49.90
2019-04-07T10:27:23.426Z,49.80
2019-04-07T10:30:14.705Z,49.50
2019-04-07T10:33:23.746Z,48.90
2019-04-07T10:36:16.823Z,48.60
2019-04-07T10:39:07.190Z,47.80
2019-04-07T10:42:29.730Z,47.40
2019-04-07T10:45:22.895Z,47.20
2019-04-07T10:48:11.122Z,46.70
2019-04-07T10:51:01.149Z,46.30
2019-04-07T10:53:49.465Z,46.50
2019-04-07T10:56:24.360Z,46.50
2019-04-07T10:59:25.598Z,46.40
2019-04-07T11:02:16.857Z,46.30
2019-04-07T11:05:05.216Z,46.50
2019-04-07T11:07:56.988Z,46.50
2019-04-07T11:10:55.536Z,46.40
2019-04-07T11:13:38.691Z,46.50
2019-04-07T11:16:44.201Z,46.20
2019-04-07T11:19:28.551Z,46.70
2019-04-07T11:22:21.004Z,46.20
2019-04-07T11:25:20.726Z,46.30
2019-04-07T11:28:29.125Z,46.20
2019-04-07T11:31:05.721Z,46.00
2019-04-07T11:34:05.513Z,46.00
2019-04-07T11:36:54.990Z,45.60
2019-04-07T11:39:47.954Z,45.50
2019-04-07T11:42:33.299Z,45.60
2019-04-07T11:45:31.488Z,45.30
2019-04-07T11:48:12.492Z,44.70
2019-04-07T11:51:07.287Z,44.70
2019-04-07T11:53:45.945Z,44.90
2019-04-07T11:56:48.097Z,45.00
2019-04-07T11:59:46.869Z,45.10
2019-04-07T12:02:43.358Z,45.10
2019-04-07T12:05:44.167Z,45.20
2019-04-07T12:08:36.164Z,45.30
2019-04-07T12:11:16.765Z,45.20
2019-04-07T12:14:07.366Z,45.20
2019-04-07T12:16:58.401Z,45.20
2019-04-07T12:19:43.027Z,45.00
2019-04-07T12:22:44.759Z,45.00
2019-04-07T12:25:25.807Z,45.20
2019-04-07T12:28:18.894Z,45.30
2019-04-07T12:31:06.446Z,45.40
2019-04-07T12:33:46.003Z,45.30
2019-04-07T12:36:45.078Z,45.20
2019-04-07T12:39:53.330Z,45.40
2019-04-07T12:42:50.322Z,45.30
2019-04-07T12:45:39.022Z,45.10
2019-04-07T12:48:32.028Z,45.00
2019-04-07T12:51:35.076Z,44.60
2019-04-07T12:54:28.928Z,44.40
2019-04-07T12:57:35.339Z,44.30
2019-04-07T13:00:24.756Z,44.20
2019-04-07T13:03:14.523Z,44.30
2019-04-07T13:06:11.725Z,44.80
2019-04-07T13:09:08.142Z,44.10
2019-04-07T13:12:03.071Z,44.20
2019-04-07T13:14:44.021Z,43.90
2019-04-07T13:17:38.151Z,44.00
2019-04-07T13:20:29.707Z,44.00
2019-04-07T13:23:11.208Z,44.00
2019-04-07T13:26:02.205Z,44.00
2019-04-07T13:29:10.717Z,44.10
2019-04-07T13:32:03.399Z,44.30
2019-04-07T13:34:58.849Z,44.30
2019-04-07T13:37:57.667Z,44.30
2019-04-07T13:40:44.089Z,44.10
2019-04-07T13:43:42.134Z,44.00
2019-04-07T13:46:34.830Z,43.90
2019-04-07T13:49:32.197Z,43.90
2019-04-07T13:52:23.085Z,44.00
2019-04-07T13:55:05.949Z,43.60
2019-04-07T13:58:00.367Z,43.50
2019-04-07T14:00:50.980Z,43.00
2019-04-07T14:03:56.528Z,42.80
2019-04-07T14:06:47.982Z,42.80
2019-04-07T14:10:05.146Z,43.00
2019-04-07T14:12:54.390Z,42.80
2019-04-07T14:15:45.549Z,42.50
2019-04-07T14:18:32.384Z,42.40
2019-04-07T14:21:33.864Z,42.60
2019-04-07T14:24:27.176Z,42.60
2019-04-07T14:27:22.096Z,42.50
2019-04-07T14:30:18.121Z,42.60
2019-04-07T14:33:07.670Z,43.00
2019-04-07T14:36:07.374Z,42.80
2019-04-07T14:38:43.089Z,42.60
2019-04-07T14:41:31.353Z,42.70
2019-04-07T14:44:22.540Z,42.90
2019-04-07T14:47:27.306Z,42.50
2019-04-07T14:50:18.977Z,42.40
2019-04-07T14:53:07.748Z,42.60
2019-04-07T14:56:04.438Z,42.70
2019-04-07T14:58:48.423Z,42.70
2019-04-07T15:01:22.501Z,42.60
2019-04-07T15:03:53.424Z,42.70
2019-04-07T15:06:28.399Z,42.50
2019-04-07T15:09:04.638Z,42.50
2019-04-07T15:11:46.727Z,42.60
2019-04-07T15:17:53.210Z,42.60
2019-04-07T15:20:25.734Z,42.50
2019-04-07T15:22:59.862Z,42.50
2019-04-07T15:25:31.991Z,42.70
2019-04-07T15:28:17.511Z,42.60
2019-04-07T15:30:53.409Z,42.80
2019-04-07T15:36:30.042Z,42.80
2019-04-07T15:39:30.046Z,42.90
2019-04-07T15:42:09.496Z,42.90
2019-04-07T15:45:21.654Z,42.80
2019-04-07T15:48:13.646Z,42.70
2019-04-07T15:50:45.805Z,42.70
2019-04-07T15:53:20.922Z,43.00
2019-04-07T15:56:01.991Z,43.10
2019-04-07T15:59:01.047Z,43.20
2019-04-07T16:01:59.349Z,43.20
2019-04-07T16:04:36.258Z,43.10
2019-04-07T16:07:06.973Z,42.80
2019-04-07T16:09:51.018Z,42.80
2019-04-07T16:12:19.834Z,42.70
2019-04-07T16:14:54.704Z,42.70
2019-04-07T16:17:25.423Z,42.70
2019-04-07T16:20:20.657Z,42.80
2019-04-07T16:22:47.967Z,42.80
2019-04-07T16:25:19.540Z,42.90
2019-04-07T16:27:51.021Z,43.00
2019-04-07T16:30:23.212Z,43.00
2019-04-07T16:33:00.977Z,43.00
2019-04-07T16:35:29.882Z,43.00
2019-04-07T16:38:02.754Z,43.10
2019-04-07T16:40:33.908Z,43.10
2019-04-07T16:43:13.467Z,43.00
2019-04-07T16:45:37.025Z,42.90
2019-04-07T16:48:07.829Z,42.90
2019-04-07T16:50:39.390Z,42.90
2019-04-07T16:53:11.876Z,42.90
2019-04-07T16:55:48.969Z,42.90
2019-04-07T16:58:17.873Z,43.10
2019-04-07T17:00:49.717Z,43.10
2019-04-07T17:03:20.576Z,43.80
2019-04-07T17:05:55.638Z,43.30
2019-04-07T17:08:24.727Z,43.50
2019-04-07T17:10:59.562Z,43.50
2019-04-07T17:13:38.579Z,43.60
2019-04-07T17:16:04.693Z,43.70
2019-04-07T17:18:49.054Z,43.30
2019-04-07T17:21:22.279Z,44.00
2019-04-07T17:23:55.760Z,44.10
2019-04-07T17:26:27.518Z,44.20
2019-04-07T17:29:01.385Z,45.00
2019-04-07T17:31:32.669Z,45.10
2019-04-07T17:34:09.866Z,44.70
2019-04-07T17:36:39.411Z,44.80
2019-04-07T17:39:40.549Z,45.00
2019-04-07T17:42:15.530Z,45.10
2019-04-07T17:45:04.332Z,45.20
2019-04-07T17:47:53.909Z,45.30
2019-04-07T17:51:07.377Z,45.40
2019-04-07T17:53:57.179Z,45.50
2019-04-07T17:56:44.257Z,45.50
2019-04-07T17:59:40.152Z,45.40
2019-04-07T18:02:35.941Z,45.70
2019-04-07T18:05:32.445Z,45.80
2019-04-07T18:08:16.752Z,46.00
2019-04-07T18:11:21.913Z,46.20
2019-04-07T18:14:14.357Z,46.30
2019-04-07T18:16:59.190Z,46.40
2019-04-07T18:19:59.647Z,46.50
2019-04-07T18:23:00.200Z,46.70
2019-04-07T18:25:57.961Z,46.60
2019-04-07T18:29:16.873Z,46.90
2019-04-07T18:32:12.007Z,47.00
2019-04-07T18:35:06.408Z,47.10
2019-04-07T18:38:09.436Z,47.40
2019-04-07T18:41:10.743Z,47.40
2019-04-07T18:44:11.993Z,47.60
2019-04-07T18:47:03.256Z,47.80
2019-04-07T18:49:52.619Z,48.00
2019-04-07T18:52:55.274Z,48.00
2019-04-07T18:55:40.317Z,48.10
2019-04-07T18:58:28.692Z,48.30
2019-04-07T19:01:18.115Z,48.40
2019-04-07T19:04:06.861Z,48.50
2019-04-07T19:06:58.574Z,48.50
2019-04-07T19:09:47.651Z,48.60
2019-04-07T19:12:37.259Z,48.70
2019-04-07T19:15:38.677Z,48.80
2019-04-07T19:18:36.772Z,48.80
2019-04-07T19:21:28.049Z,48.90
2019-04-07T19:24:25.064Z,49.00
2019-04-07T19:27:13.402Z,49.00
2019-04-07T19:29:53.710Z,49.10
2019-04-07T19:32:52.592Z,49.00
2019-04-07T19:35:49.870Z,49.00
2019-04-07T19:38:39.108Z,49.00
2019-04-07T19:41:35.421Z,48.90
2019-04-07T19:44:37.059Z,48.90
2019-04-07T19:47:10.809Z,48.80
2019-04-07T19:50:09.830Z,48.80
2019-04-07T19:53:10.000Z,48.90
2019-04-07T19:56:05.108Z,48.90
2019-04-07T19:58:53.541Z,48.90
2019-04-07T20:01:42.201Z,48.90
2019-04-07T20:04:22.795Z,49.10
2019-04-07T20:07:30.185Z,49.70
2019-04-07T20:10:26.027Z,49.30
2019-04-07T20:13:19.804Z,49.30
2019-04-07T20:16:03.205Z,49.50
2019-04-07T20:18:59.648Z,49.60
2019-04-07T20:21:55.004Z,49.60
2019-04-07T20:24:42.372Z,49.70
2019-04-07T20:27:40.884Z,49.70
2019-04-07T20:30:29.667Z,49.60
2019-04-07T20:33:18.905Z,49.60
2019-04-07T20:36:17.657Z,49.50
2019-04-07T20:39:17.168Z,49.40
2019-04-07T20:42:48.454Z,49.50
2019-04-07T20:45:47.455Z,49.30
2019-04-07T20:48:54.150Z,49.20
2019-04-07T20:51:50.556Z,49.10
2019-04-07T20:54:38.930Z,49.20
2019-04-07T20:57:38.954Z,49.20
2019-04-07T21:00:26.322Z,49.30
2019-04-07T21:03:19.783Z,49.30
2019-04-07T21:06:00.095Z,49.40
2019-04-07T21:08:39.966Z,49.50
2019-04-07T21:11:26.315Z,49.40
2019-04-07T21:14:21.134Z,50.00
2019-04-07T21:17:07.423Z,49.20
2019-04-07T21:19:51.243Z,49.10
2019-04-07T21:22:55.939Z,49.10
2019-04-07T21:25:54.091Z,49.60
2019-04-07T21:28:45.247Z,48.90
2019-04-07T21:31:36.479Z,48.80
2019-04-07T21:34:22.885Z,48.80
2019-04-07T21:37:01.931Z,48.70
2019-04-07T21:39:53.653Z,48.70
2019-04-07T21:42:57.252Z,48.50
2019-04-07T21:45:52.778Z,48.40
2019-04-07T21:48:35.706Z,48.20
2019-04-07T21:51:23.706Z,48.20
2019-04-07T21:54:09.790Z,48.10
2019-04-07T21:57:11.085Z,47.90
2019-04-07T21:59:59.059Z,47.90
2019-04-07T22:02:40.656Z,47.80
2019-04-07T22:05:34.927Z,47.90
2019-04-07T22:08:49.711Z,47.90
2019-04-07T22:11:51.500Z,47.90
2019-04-07T22:14:22.845Z,47.80
2019-04-07T22:17:04.141Z,47.90
2019-04-07T22:19:43.291Z,47.90
2019-04-07T22:22:14.481Z,47.90
2019-04-07T22:24:54.455Z,48.00
2019-04-07T22:27:38.947Z,48.00
2019-04-07T22:30:12.024Z,47.90
2019-04-07T22:32:42.868Z,48.00
2019-04-07T22:35:21.023Z,48.00
2019-04-07T22:37:52.618Z,48.10
2019-04-07T22:40:26.825Z,48.00
2019-04-07T22:42:59.897Z,48.10
2019-04-07T22:45:35.097Z,48.10
2019-04-07T22:48:12.073Z,48.20
2019-04-07T22:50:41.250Z,48.20
2019-04-07T22:53:12.289Z,48.20
2019-04-07T22:55:43.004Z,48.20
2019-04-07T22:58:13.900Z,48.10
2019-04-07T23:00:44.585Z,48.20
2019-04-07T23:03:17.571Z,48.20
2019-04-07T23:05:49.340Z,48.20
2019-04-07T23:08:20.856Z,48.40
2019-04-07T23:10:51.469Z,48.50
2019-04-07T23:13:25.842Z,48.40
2019-04-07T23:16:09.017Z,48.60
2019-04-07T23:18:32.650Z,48.70
2019-04-07T23:21:06.012Z,48.80
2019-04-07T23:23:37.771Z,48.80
2019-04-07T23:26:08.283Z,48.70
2019-04-07T23:28:47.190Z,48.70
2019-04-07T23:31:16.919Z,48.70
2019-04-07T23:33:50.214Z,48.70
2019-04-07T23:36:22.107Z,49.00
2019-04-07T23:38:53.757Z,49.10
2019-04-07T23:41:25.451Z,49.20
2019-04-07T23:43:56.801Z,49.40
2019-04-07T23:46:29.689Z,49.40
2019-04-07T23:49:01.516Z,49.50
2019-04-07T23:51:32.476Z,49.60
2019-04-07T23:54:14.551Z,49.70
2019-04-07T23:56:50.023Z,49.90
2019-04-07T23:59:20.917Z,49.80
